Time;durP1;ratioP1;P1;durP2;ratioP2;P2;SDS_P1;SDS_P2;PMS_P1;PMS_P2;Temp;Humidity;BMP_temperature;BMP_pressure;BME280_temperature;BME280_humidity;BME280_pressure;Samples;Min_cycle;Max_cycle;Signal;HPM_P1;HPM_P2
2022/10/02 00:01:44;;;;;;;16.40;2.47;;;;;;;;;;8298855;28;20048;-61
2022/10/02 00:05:47;;;;;;;12.65;2.53;;;;;;;;;;8297251;28;20471;-62
2022/10/02 00:09:50;;;;;;;14.63;2.40;;;;;;;;;;8296905;28;20050;-62
2022/10/02 00:13:56;;;;;;;8.40;2.10;;;;;;;;;;8300728;28;20279;-61
2022/10/02 00:18:06;;;;;;;6.85;2.03;;;;;;;;;;8298565;28;20042;-62
2022/10/02 00:22:15;;;;;;;15.27;2.90;;;;;;;;;;8301202;28;20030;-62
2022/10/02 00:26:20;;;;;;;10.02;2.15;;;;;;;;;;8299498;28;20460;-61
2022/10/02 00:30:20;;;;;;;11.80;2.65;;;;;;;;;;8300816;28;20549;-62
2022/10/02 00:34:25;;;;;;;8.98;2.17;;;;;;;;;;8299930;28;20429;-61
2022/10/02 00:38:36;;;;;;;8.93;1.63;;;;;;;;;;8299360;28;20021;-62
2022/10/02 00:42:36;;;;;;;7.45;1.95;;;;;;;;;;8300336;28;20025;-63
2022/10/02 00:46:37;;;;;;;10.15;2.17;;;;;;;;;;8297564;28;20087;-61
2022/10/02 00:50:55;;;;;;;10.30;2.05;;;;;;;;;;8302731;28;20025;-62
2022/10/02 00:55:18;;;;;;;14.55;2.30;;;;;;;;;;8300508;28;20022;-62
2022/10/02 00:59:38;;;;;;;8.68;2.03;;;;;;;;;;8300769;28;20030;-61
2022/10/02 01:03:43;;;;;;;8.20;2.25;;;;;;;;;;8297165;28;20238;-62
2022/10/02 01:07:45;;;;;;;11.25;2.28;;;;;;;;;;8300689;28;20130;-62
2022/10/02 01:11:46;;;;;;;12.30;2.63;;;;;;;;;;8301886;28;20610;-61
2022/10/02 01:15:50;;;;;;;10.25;2.30;;;;;;;;;;8301601;28;20033;-61
2022/10/02 01:19:50;;;;;;;16.88;2.55;;;;;;;;;;8295267;28;20382;-61
2022/10/02 01:23:55;;;;;;;9.47;2.87;;;;;;;;;;8297352;28;20530;-61
2022/10/02 01:27:56;;;;;;;9.20;2.13;;;;;;;;;;8298616;28;20030;-61
2022/10/02 01:31:56;;;;;;;12.55;2.38;;;;;;;;;;8298196;28;20040;-62
2022/10/02 01:35:56;;;;;;;12.07;2.75;;;;;;;;;;8299612;28;20037;-61
2022/10/02 01:40:08;;;;;;;11.52;2.17;;;;;;;;;;8298752;28;20061;-62
2022/10/02 01:44:09;;;;;;;13.50;2.65;;;;;;;;;;8298002;28;20206;-61
2022/10/02 01:48:15;;;;;;;16.95;2.60;;;;;;;;;;8297852;28;20073;-63
2022/10/02 01:52:36;;;;;;;11.07;2.38;;;;;;;;;;8298965;28;20140;-61
2022/10/02 01:56:46;;;;;;;11.52;2.30;;;;;;;;;;8266384;28;20786;-61
2022/10/02 02:01:16;;;;;;;10.10;2.45;;;;;;;;;;8299325;28;20037;-62
2022/10/02 02:05:25;;;;;;;12.57;2.40;;;;;;;;;;8288248;28;20094;-61
2022/10/02 02:09:55;;;;;;;12.60;2.85;;;;;;;;;;8299585;28;20040;-61
2022/10/02 02:14:04;;;;;;;17.13;2.88;;;;;;;;;;8260158;28;20037;-62
2022/10/02 02:18:14;;;;;;;16.95;3.45;;;;;;;;;;8302569;28;20076;-61
2022/10/02 02:22:22;;;;;;;13.45;2.75;;;;;;;;;;8303596;28;20091;-62
2022/10/02 02:26:24;;;;;;;12.23;3.40;;;;;;;;;;8302973;28;20208;-61
2022/10/02 02:30:24;;;;;;;10.32;3.40;;;;;;;;;;8303184;28;20071;-62
2022/10/02 02:34:31;;;;;;;12.23;2.80;;;;;;;;;;8302878;28;20017;-61
2022/10/02 02:38:35;;;;;;;10.30;2.78;;;;;;;;;;8303819;28;20371;-62
2022/10/02 02:42:38;;;;;;;14.13;3.28;;;;;;;;;;8303094;28;20059;-61
2022/10/02 02:55:59;;;;;;;13.88;3.35;;;;;;;;;;8307609;28;20418;-65
2022/10/02 03:00:01;;;;;;;13.15;3.40;;;;;;;;;;8304808;28;20032;-62
2022/10/02 03:04:01;;;;;;;15.73;3.42;;;;;;;;;;8302661;28;20042;-61
2022/10/02 03:08:03;;;;;;;21.00;3.80;;;;;;;;;;8305989;28;20645;-61
2022/10/02 03:12:03;;;;;;;16.65;3.45;;;;;;;;;;8304377;28;20028;-61
2022/10/02 03:16:22;;;;;;;14.68;3.45;;;;;;;;;;8302400;28;20770;-62
2022/10/02 03:20:22;;;;;;;16.02;3.00;;;;;;;;;;8305925;28;20401;-62
2022/10/02 03:24:27;;;;;;;15.13;3.13;;;;;;;;;;8305740;28;20025;-61
2022/10/02 03:28:32;;;;;;;16.50;3.40;;;;;;;;;;8305952;28;20040;-62
2022/10/02 03:32:32;;;;;;;14.95;3.15;;;;;;;;;;8303675;28;20148;-62
2022/10/02 03:36:33;;;;;;;16.38;3.35;;;;;;;;;;8304596;28;20083;-61
2022/10/02 03:40:33;;;;;;;15.35;3.17;;;;;;;;;;8302800;28;20626;-61
2022/10/02 03:44:33;;;;;;;13.43;3.28;;;;;;;;;;8306248;28;20040;-61
2022/10/02 03:48:33;;;;;;;15.50;3.05;;;;;;;;;;8301184;28;20086;-62
2022/10/02 03:52:34;;;;;;;17.17;3.35;;;;;;;;;;8301719;28;20024;-62
2022/10/02 03:56:40;;;;;;;19.88;3.80;;;;;;;;;;8299670;28;20383;-62
2022/10/02 04:00:45;;;;;;;11.77;3.40;;;;;;;;;;8301989;28;20029;-62
2022/10/02 04:04:48;;;;;;;14.52;3.65;;;;;;;;;;8302322;28;20033;-62
2022/10/02 04:08:57;;;;;;;15.60;3.23;;;;;;;;;;8300094;28;20060;-61
2022/10/02 04:13:01;;;;;;;12.73;2.95;;;;;;;;;;8300567;28;20070;-62
2022/10/02 04:17:09;;;;;;;9.10;2.97;;;;;;;;;;8301017;28;20835;-61
2022/10/02 04:21:20;;;;;;;9.30;2.80;;;;;;;;;;8300254;28;20064;-62
2022/10/02 04:25:23;;;;;;;11.55;2.58;;;;;;;;;;8300697;28;20044;-62
2022/10/02 04:29:26;;;;;;;15.75;2.85;;;;;;;;;;8298849;28;20138;-62
2022/10/02 04:33:26;;;;;;;9.32;2.50;;;;;;;;;;8299567;28;20041;-61
2022/10/02 04:37:28;;;;;;;9.90;2.50;;;;;;;;;;8302118;28;20068;-62
2022/10/02 04:41:39;;;;;;;7.10;1.98;;;;;;;;;;8300647;28;20572;-61
2022/10/02 04:45:39;;;;;;;11.15;2.50;;;;;;;;;;8299639;28;20043;-61
2022/10/02 04:49:45;;;;;;;12.10;2.37;;;;;;;;;;8302746;28;20056;-61
2022/10/02 04:53:57;;;;;;;10.07;2.13;;;;;;;;;;8302557;28;20773;-62
2022/10/02 04:58:17;;;;;;;9.10;2.60;;;;;;;;;;8304021;28;20025;-62
2022/10/02 05:02:20;;;;;;;6.18;2.05;;;;;;;;;;8300462;28;20150;-61
2022/10/02 05:06:29;;;;;;;7.35;2.17;;;;;;;;;;8303194;28;20038;-62
2022/10/02 05:10:30;;;;;;;5.75;1.80;;;;;;;;;;8301913;28;20061;-62
2022/10/02 05:14:42;;;;;;;7.82;2.03;;;;;;;;;;8303526;28;20029;-61
2022/10/02 05:18:52;;;;;;;8.15;1.92;;;;;;;;;;8302856;28;20041;-62
2022/10/02 05:23:04;;;;;;;6.43;1.98;;;;;;;;;;8301606;28;20061;-61
2022/10/02 05:27:10;;;;;;;6.32;1.80;;;;;;;;;;8302992;28;20087;-61
2022/10/02 05:31:10;;;;;;;6.70;1.90;;;;;;;;;;8302140;28;20037;-61
2022/10/02 05:35:19;;;;;;;7.13;2.10;;;;;;;;;;8304531;28;20077;-61
2022/10/02 05:39:23;;;;;;;7.63;2.40;;;;;;;;;;8301569;28;20269;-61
2022/10/02 05:43:28;;;;;;;7.05;1.80;;;;;;;;;;8300938;28;20550;-61
2022/10/02 05:47:38;;;;;;;6.00;1.90;;;;;;;;;;8304088;28;20581;-61
2022/10/02 05:51:49;;;;;;;6.85;1.75;;;;;;;;;;8305104;28;20532;-61
2022/10/02 05:55:59;;;;;;;7.82;2.30;;;;;;;;;;8307496;28;20736;-62
2022/10/02 06:00:19;;;;;;;7.72;1.98;;;;;;;;;;8310307;28;20035;-62
2022/10/02 06:04:26;;;;;;;6.00;2.00;;;;;;;;;;8305573;28;20485;-61
2022/10/02 06:08:39;;;;;;;7.45;1.88;;;;;;;;;;8304832;28;20545;-62
2022/10/02 06:12:44;;;;;;;5.18;1.90;;;;;;;;;;8309231;28;20198;-61
2022/10/02 06:16:50;;;;;;;4.45;1.35;;;;;;;;;;8306042;28;20068;-62
2022/10/02 06:21:03;;;;;;;5.70;1.65;;;;;;;;;;8306314;28;20724;-61
2022/10/02 06:25:09;;;;;;;2.57;1.20;;;;;;;;;;8320024;28;20318;-62
2022/10/02 06:29:13;;;;;;;3.83;1.27;;;;;;;;;;8321792;28;20039;-62
2022/10/02 06:33:23;;;;;;;1.52;1.27;;;;;;;;;;8306278;28;20821;-62
2022/10/02 06:37:32;;;;;;;1.95;1.10;;;;;;;;;;8306883;28;20071;-62
2022/10/02 06:41:47;;;;;;;1.73;1.00;;;;;;;;;;8307084;28;20415;-61
2022/10/02 06:45:51;;;;;;;4.13;0.98;;;;;;;;;;8304869;28;20060;-61
2022/10/02 06:49:52;;;;;;;2.63;0.85;;;;;;;;;;8303650;28;20029;-61
2022/10/02 06:54:03;;;;;;;3.17;1.10;;;;;;;;;;8307324;28;20328;-62
2022/10/02 06:58:15;;;;;;;1.75;1.20;;;;;;;;;;8304041;28;20036;-61
2022/10/02 07:02:22;;;;;;;1.40;1.20;;;;;;;;;;8304009;28;20033;-61
2022/10/02 07:06:44;;;;;;;2.50;1.30;;;;;;;;;;8305526;28;20035;-61
2022/10/02 07:10:44;;;;;;;2.88;2.00;;;;;;;;;;8304832;28;21000;-61
2022/10/02 07:15:03;;;;;;;2.15;1.50;;;;;;;;;;8305502;28;20248;-62
2022/10/02 07:19:23;;;;;;;3.92;1.40;;;;;;;;;;8305917;28;20085;-61
2022/10/02 07:23:26;;;;;;;1.35;1.08;;;;;;;;;;8306764;28;20517;-61
2022/10/02 07:27:35;;;;;;;1.77;1.00;;;;;;;;;;8303340;28;20390;-61
2022/10/02 07:31:35;;;;;;;1.27;0.88;;;;;;;;;;8303143;28;20131;-61
2022/10/02 07:35:35;;;;;;;1.33;1.20;;;;;;;;;;8304129;28;20990;-61
2022/10/02 07:39:36;;;;;;;1.52;1.10;;;;;;;;;;8305067;28;20140;-61
2022/10/02 07:43:36;;;;;;;1.60;1.40;;;;;;;;;;8305340;28;20017;-61
2022/10/02 07:47:54;;;;;;;0.70;0.70;;;;;;;;;;8302954;28;20030;-61
2022/10/02 07:51:59;;;;;;;0.90;0.70;;;;;;;;;;8305199;28;20112;-61
2022/10/02 07:55:59;;;;;;;0.77;0.75;;;;;;;;;;8301974;28;20052;-61
2022/10/02 08:00:02;;;;;;;0.70;0.70;;;;;;;;;;8304100;28;20038;-61
2022/10/02 08:04:04;;;;;;;0.60;0.60;;;;;;;;;;8302854;28;20262;-61
2022/10/02 08:08:23;;;;;;;0.68;0.50;;;;;;;;;;8304790;28;20032;-61
2022/10/02 08:12:30;;;;;;;0.50;0.50;;;;;;;;;;8302739;28;20032;-61
2022/10/02 08:16:33;;;;;;;3.85;1.00;;;;;;;;;;8302003;28;20509;-61
2022/10/02 08:20:39;;;;;;;4.03;1.20;;;;;;;;;;8300219;28;20626;-61
2022/10/02 08:24:46;;;;;;;0.73;0.73;;;;;;;;;;8305205;28;20029;-61
2022/10/02 08:29:04;;;;;;;0.45;0.45;;;;;;;;;;8302468;28;20033;-61
2022/10/02 08:33:31;;;;;;;0.98;0.40;;;;;;;;;;8300907;28;20606;-61
2022/10/02 08:37:50;;;;;;;2.20;0.50;;;;;;;;;;8303746;28;20363;-61
2022/10/02 08:42:03;;;;;;;0.50;0.50;;;;;;;;;;8301428;28;20053;-61
2022/10/02 08:46:22;;;;;;;0.60;0.60;;;;;;;;;;8303741;28;20047;-62
2022/10/02 08:50:41;;;;;;;2.13;1.67;;;;;;;;;;8303476;28;20028;-61
2022/10/02 08:55:04;;;;;;;0.40;0.40;;;;;;;;;;8303198;28;20028;-61
2022/10/02 08:59:22;;;;;;;2.05;0.95;;;;;;;;;;8299782;28;20049;-61
2022/10/02 09:03:34;;;;;;;1.10;0.70;;;;;;;;;;8300393;28;20106;-61
2022/10/02 09:07:53;;;;;;;0.63;0.63;;;;;;;;;;8301224;28;20095;-63
2022/10/02 09:11:57;;;;;;;0.57;0.50;;;;;;;;;;8302422;28;20033;-61
2022/10/02 09:16:08;;;;;;;0.50;0.50;;;;;;;;;;8301861;28;20510;-62
2022/10/02 09:20:27;;;;;;;0.57;0.57;;;;;;;;;;8298905;28;20025;-62
2022/10/02 09:24:46;;;;;;;0.45;0.40;;;;;;;;;;8302364;28;20302;-61
2022/10/02 09:28:52;;;;;;;0.30;0.30;;;;;;;;;;8306467;28;20025;-61
2022/10/02 09:32:56;;;;;;;0.40;0.40;;;;;;;;;;8304477;28;20113;-63
2022/10/02 09:36:56;;;;;;;;;;;;;;;;;;8305781;28;20565;-62
2022/10/02 09:40:57;;;;;;;0.50;0.50;;;;;;;;;;8306269;28;19917;-61
2022/10/02 09:45:03;;;;;;;4.13;0.60;;;;;;;;;;8307917;28;20252;-62
2022/10/02 09:49:12;;;;;;;3.25;0.68;;;;;;;;;;8307733;28;20049;-62
2022/10/02 09:53:24;;;;;;;0.57;0.57;;;;;;;;;;8308665;28;20104;-61
2022/10/02 09:57:34;;;;;;;0.40;0.40;;;;;;;;;;8306783;28;20077;-63
2022/10/02 10:01:37;;;;;;;0.73;0.55;;;;;;;;;;8306590;28;20141;-62
2022/10/02 10:05:56;;;;;;;0.90;0.60;;;;;;;;;;8308050;28;20108;-61
2022/10/02 10:09:56;;;;;;;1.02;0.77;;;;;;;;;;8304976;28;21549;-61
2022/10/02 10:14:17;;;;;;;2.15;1.30;;;;;;;;;;8306743;28;20055;-60
2022/10/02 10:18:17;;;;;;;2.85;0.70;;;;;;;;;;8306808;28;20573;-61
2022/10/02 10:22:18;;;;;;;0.70;0.70;;;;;;;;;;8306537;28;20099;-61
2022/10/02 10:26:18;;;;;;;0.73;0.70;;;;;;;;;;8307981;28;20481;-61
2022/10/02 10:30:31;;;;;;;0.50;0.50;;;;;;;;;;8307062;28;20109;-61
2022/10/02 10:34:44;;;;;;;2.28;0.80;;;;;;;;;;8308226;28;20139;-61
2022/10/02 10:39:02;;;;;;;0.70;0.70;;;;;;;;;;8306191;28;20025;-62
2022/10/02 10:43:09;;;;;;;0.80;0.70;;;;;;;;;;8306585;28;20463;-61
2022/10/02 10:47:14;;;;;;;0.80;0.80;;;;;;;;;;8306047;28;20037;-62
2022/10/02 10:51:21;;;;;;;1.50;1.40;;;;;;;;;;8303447;28;20411;-61
2022/10/02 10:55:24;;;;;;;1.30;1.20;;;;;;;;;;8308400;28;20386;-62
2022/10/02 10:59:32;;;;;;;1.83;0.70;;;;;;;;;;8305863;28;20033;-62
2022/10/02 11:03:51;;;;;;;0.60;0.60;;;;;;;;;;8306599;28;20084;-62
2022/10/02 11:08:10;;;;;;;0.55;0.55;;;;;;;;;;8305610;28;20086;-62
2022/10/02 11:12:29;;;;;;;0.60;0.60;;;;;;;;;;8303301;28;20033;-62
2022/10/02 11:16:29;;;;;;;0.85;0.75;;;;;;;;;;8304938;28;20084;-62
2022/10/02 11:20:46;;;;;;;0.70;0.70;;;;;;;;;;8306651;28;20040;-63
2022/10/02 11:24:55;;;;;;;2.75;0.68;;;;;;;;;;8307041;28;20021;-62
2022/10/02 11:29:04;;;;;;;0.40;0.40;;;;;;;;;;8305892;28;20959;-62
2022/10/02 11:33:10;;;;;;;1.40;0.90;;;;;;;;;;8302692;28;20037;-61
2022/10/02 11:37:23;;;;;;;1.10;1.00;;;;;;;;;;8304096;28;20079;-62
2022/10/02 11:41:44;;;;;;;2.08;1.63;;;;;;;;;;8305748;28;20025;-61
2022/10/02 11:45:54;;;;;;;1.00;0.70;;;;;;;;;;8302101;28;20033;-63
2022/10/02 11:50:14;;;;;;;0.65;0.65;;;;;;;;;;8302975;28;20121;-61
2022/10/02 11:54:24;;;;;;;1.60;0.60;;;;;;;;;;8293245;28;20253;-62
2022/10/02 11:58:43;;;;;;;1.00;0.90;;;;;;;;;;8305891;28;20102;-62
2022/10/02 12:02:44;;;;;;;1.33;0.50;;;;;;;;;;8304990;28;20824;-61
2022/10/02 12:07:03;;;;;;;0.50;0.50;;;;;;;;;;8302485;28;20059;-62
2022/10/02 12:11:10;;;;;;;0.50;0.50;;;;;;;;;;8303101;28;20037;-62
2022/10/02 12:15:32;;;;;;;1.05;0.57;;;;;;;;;;8302355;28;20043;-62
2022/10/02 12:28:54;;;;;;;2.97;1.52;;;;;;;;;;8304043;28;20037;-62
2022/10/02 12:32:55;;;;;;;0.40;0.40;;;;;;;;;;8302343;28;20032;-62
2022/10/02 12:37:08;;;;;;;3.10;2.25;;;;;;;;;;8303951;28;20287;-62
2022/10/02 12:41:32;;;;;;;0.88;0.73;;;;;;;;;;8303434;28;20151;-61
2022/10/02 12:45:32;;;;;;;;;;;;;;;;;;8304198;28;20659;-62
2022/10/02 12:49:44;;;;;;;1.65;1.23;;;;;;;;;;8301778;28;19934;-62
2022/10/02 12:53:48;;;;;;;0.70;0.70;;;;;;;;;;8301617;28;20013;-62
2022/10/02 12:57:51;;;;;;;0.98;0.60;;;;;;;;;;8300824;28;20021;-62
2022/10/02 13:02:06;;;;;;;0.60;0.60;;;;;;;;;;8302156;28;20361;-62
2022/10/02 13:06:09;;;;;;;0.82;0.77;;;;;;;;;;8304012;28;21048;-62
2022/10/02 13:10:20;;;;;;;2.55;0.60;;;;;;;;;;8300169;28;20056;-62
2022/10/02 13:14:26;;;;;;;1.00;0.90;;;;;;;;;;8300406;28;20025;-61
2022/10/02 13:18:42;;;;;;;0.60;0.60;;;;;;;;;;8301591;28;20037;-61
2022/10/02 13:22:45;;;;;;;1.15;0.70;;;;;;;;;;8299538;28;20029;-62
2022/10/02 13:26:55;;;;;;;0.55;0.40;;;;;;;;;;8297507;28;20029;-62
2022/10/02 13:31:10;;;;;;;0.60;0.60;;;;;;;;;;8296622;28;20167;-61
2022/10/02 13:35:31;;;;;;;0.50;0.50;;;;;;;;;;8298564;28;20669;-62
2022/10/02 13:39:43;;;;;;;1.65;0.70;;;;;;;;;;8296734;28;20033;-61
2022/10/02 13:43:44;;;;;;;0.60;0.60;;;;;;;;;;8295680;28;20272;-62
2022/10/02 13:47:50;;;;;;;1.30;1.00;;;;;;;;;;8295855;28;20124;-62
2022/10/02 13:52:08;;;;;;;2.28;0.82;;;;;;;;;;8297914;28;20026;-62
2022/10/02 13:56:11;;;;;;;0.90;0.90;;;;;;;;;;8296286;28;20064;-62
2022/10/02 14:00:21;;;;;;;2.57;0.70;;;;;;;;;;8296575;28;20033;-62
2022/10/02 14:04:34;;;;;;;0.63;0.50;;;;;;;;;;8297851;28;20491;-63
2022/10/02 14:08:52;;;;;;;0.70;0.70;;;;;;;;;;8301246;28;20114;-62
2022/10/02 14:13:11;;;;;;;0.85;0.55;;;;;;;;;;8303252;28;20851;-61
2022/10/02 14:17:35;;;;;;;0.60;0.60;;;;;;;;;;8304931;28;20089;-61
2022/10/02 14:21:37;;;;;;;0.63;0.63;;;;;;;;;;8306117;28;20025;-61
2022/10/02 14:25:41;;;;;;;0.98;0.90;;;;;;;;;;8306437;28;20732;-62
2022/10/02 14:29:47;;;;;;;2.75;2.42;;;;;;;;;;8306367;28;20029;-62
2022/10/02 14:34:06;;;;;;;1.73;1.60;;;;;;;;;;8305622;28;20033;-62
2022/10/02 14:38:09;;;;;;;0.93;0.88;;;;;;;;;;8306584;28;20021;-62
2022/10/02 14:42:19;;;;;;;0.70;0.70;;;;;;;;;;8303274;28;20075;-62
2022/10/02 14:46:34;;;;;;;1.60;1.02;;;;;;;;;;8305042;28;20210;-62
2022/10/02 14:50:57;;;;;;;1.20;1.10;;;;;;;;;;8305409;28;20489;-61
2022/10/02 14:55:11;;;;;;;1.60;1.50;;;;;;;;;;8308388;28;20068;-61
2022/10/02 14:59:18;;;;;;;1.75;1.65;;;;;;;;;;8307770;28;20036;-63
2022/10/02 15:03:26;;;;;;;2.30;2.10;;;;;;;;;;8302870;28;20092;-62
2022/10/02 15:07:28;;;;;;;1.90;1.80;;;;;;;;;;8306192;28;20064;-62
2022/10/02 15:11:34;;;;;;;3.40;1.30;;;;;;;;;;8309888;28;20502;-62
2022/10/02 15:15:48;;;;;;;4.72;2.20;;;;;;;;;;8303942;28;20036;-62
2022/10/02 15:19:48;;;;;;;;;;;;;;;;;;8304743;28;20151;-61
2022/10/02 15:23:49;;;;;;;1.20;1.10;;;;;;;;;;8301817;28;19994;-61
2022/10/02 15:28:15;;;;;;;2.13;1.55;;;;;;;;;;8299490;28;20041;-61
2022/10/02 15:32:21;;;;;;;1.30;1.20;;;;;;;;;;8271498;28;20049;-62
2022/10/02 15:36:24;;;;;;;2.28;1.33;;;;;;;;;;8297101;28;20419;-61
2022/10/02 15:40:46;;;;;;;1.50;1.13;;;;;;;;;;8297976;28;20094;-63
2022/10/02 15:45:21;;;;;;;1.88;1.30;;;;;;;;;;8296661;28;20064;-61
2022/10/02 15:49:40;;;;;;;1.73;0.75;;;;;;;;;;8226323;28;20100;-62
2022/10/02 15:53:46;;;;;;;2.83;0.80;;;;;;;;;;8263916;28;20022;-62
2022/10/02 15:57:56;;;;;;;2.72;1.92;;;;;;;;;;8265515;28;20034;-61
2022/10/02 16:02:14;;;;;;;2.92;0.90;;;;;;;;;;8264539;28;22461;-61
2022/10/02 16:06:14;;;;;;;1.80;0.90;;;;;;;;;;8265468;28;20018;-62
2022/10/02 16:10:14;;;;;;;1.77;0.80;;;;;;;;;;8263839;28;20656;-62
2022/10/02 16:14:26;;;;;;;4.80;1.60;;;;;;;;;;8264003;28;20244;-62
2022/10/02 16:18:29;;;;;;;2.33;1.40;;;;;;;;;;8265171;28;21209;-61
2022/10/02 16:22:33;;;;;;;4.00;1.90;;;;;;;;;;8263317;28;20322;-61
2022/10/02 16:26:42;;;;;;;3.53;1.90;;;;;;;;;;8264251;28;20042;-62
2022/10/02 16:30:48;;;;;;;3.03;1.63;;;;;;;;;;8263658;28;20412;-62
2022/10/02 16:34:49;;;;;;;2.95;2.03;;;;;;;;;;8263286;28;20581;-61
2022/10/02 16:38:49;;;;;;;10.23;2.85;;;;;;;;;;8263271;28;20604;-61
2022/10/02 16:42:52;;;;;;;7.43;3.90;;;;;;;;;;8262092;28;20061;-62
2022/10/02 16:47:12;;;;;;;8.75;4.25;;;;;;;;;;8263497;28;20381;-62
2022/10/02 16:51:31;;;;;;;4.55;1.38;;;;;;;;;;8261218;28;20037;-62
2022/10/02 16:55:43;;;;;;;1.95;1.20;;;;;;;;;;8264249;28;20467;-61
2022/10/02 17:00:01;;;;;;;2.47;1.10;;;;;;;;;;8264759;28;20034;-63
2022/10/02 17:04:19;;;;;;;2.97;1.00;;;;;;;;;;8261810;28;20042;-62
2022/10/02 17:08:38;;;;;;;3.78;1.60;;;;;;;;;;8265451;28;20033;-61
2022/10/02 17:12:57;;;;;;;2.15;0.98;;;;;;;;;;8264504;28;20030;-61
2022/10/02 17:17:01;;;;;;;2.92;0.85;;;;;;;;;;8262367;28;20488;-62
2022/10/02 17:21:28;;;;;;;6.15;1.55;;;;;;;;;;8262176;28;20065;-62
2022/10/02 17:25:28;;;;;;;2.63;1.00;;;;;;;;;;8262159;28;20120;-62
2022/10/02 17:29:33;;;;;;;1.60;0.68;;;;;;;;;;8262277;28;20034;-62
2022/10/02 17:33:44;;;;;;;1.38;0.75;;;;;;;;;;8277600;28;20115;-62
2022/10/02 17:37:47;;;;;;;3.50;0.60;;;;;;;;;;8262058;28;20273;-62
2022/10/02 17:41:50;;;;;;;1.63;0.80;;;;;;;;;;8262308;28;20029;-62
2022/10/02 17:45:59;;;;;;;2.20;1.70;;;;;;;;;;8263120;28;20136;-62
2022/10/02 17:50:12;;;;;;;2.05;1.13;;;;;;;;;;8269010;28;20029;-62
2022/10/02 17:58:55;;;;;;;6.40;1.20;;;;;;;;;;8270190;28;20407;-61
2022/10/02 18:03:17;;;;;;;2.10;1.20;;;;;;;;;;8267615;28;20034;-62
2022/10/02 18:07:26;;;;;;;2.35;0.90;;;;;;;;;;8268804;28;20022;-62
2022/10/02 18:11:45;;;;;;;1.20;1.10;;;;;;;;;;8267209;28;20025;-61
2022/10/02 18:15:45;;;;;;;1.20;0.90;;;;;;;;;;8269204;28;20065;-62
2022/10/02 18:19:48;;;;;;;1.25;0.90;;;;;;;;;;8266151;28;20250;-62
2022/10/02 18:24:21;;;;;;;1.10;1.00;;;;;;;;;;8267334;28;20026;-62
2022/10/02 18:28:33;;;;;;;0.77;0.77;;;;;;;;;;8245853;28;20037;-62
2022/10/02 18:32:43;;;;;;;0.80;0.80;;;;;;;;;;8266543;28;20061;-62
2022/10/02 18:37:08;;;;;;;1.30;1.20;;;;;;;;;;8268021;28;20037;-61
2022/10/02 18:41:08;;;;;;;;;;;;;;;;;;8264993;28;20088;-62
2022/10/02 18:45:26;;;;;;;0.90;0.90;;;;;;;;;;8263417;28;19995;-62
2022/10/02 18:49:38;;;;;;;4.78;1.08;;;;;;;;;;8264073;28;20033;-61
2022/10/02 18:53:51;;;;;;;1.48;1.38;;;;;;;;;;8262905;28;20088;-62
2022/10/02 18:58:03;;;;;;;1.10;1.00;;;;;;;;;;8263582;28;20065;-61
2022/10/02 19:02:28;;;;;;;2.53;1.00;;;;;;;;;;8262068;28;20881;-62
2022/10/02 19:06:32;;;;;;;5.70;2.60;;;;;;;;;;8260540;28;20831;-62
2022/10/02 19:10:32;;;;;;;5.50;2.92;;;;;;;;;;8263337;28;20029;-61
2022/10/02 19:14:35;;;;;;;10.70;3.88;;;;;;;;;;8261671;28;20372;-61
2022/10/02 19:18:36;;;;;;;8.57;3.00;;;;;;;;;;8261892;28;20034;-61
2022/10/02 19:22:37;;;;;;;6.22;2.60;;;;;;;;;;8262726;28;20596;-62
2022/10/02 19:26:40;;;;;;;7.07;2.92;;;;;;;;;;8260682;28;20033;-61
2022/10/02 19:30:45;;;;;;;4.70;1.73;;;;;;;;;;8260792;28;20498;-61
2022/10/02 19:35:08;;;;;;;2.40;1.33;;;;;;;;;;8261313;28;20042;-61
2022/10/02 19:39:16;;;;;;;2.00;1.30;;;;;;;;;;8257939;28;20046;-62
2022/10/02 19:43:23;;;;;;;2.80;1.38;;;;;;;;;;8262888;28;20616;-61
2022/10/02 19:47:29;;;;;;;5.25;1.38;;;;;;;;;;8259679;28;20457;-62
2022/10/02 19:51:40;;;;;;;5.47;1.70;;;;;;;;;;8262419;28;20316;-63
2022/10/02 19:55:41;;;;;;;7.90;1.75;;;;;;;;;;8263691;28;20322;-61
2022/10/02 19:59:43;;;;;;;3.78;1.73;;;;;;;;;;8263172;28;20162;-62
2022/10/02 20:03:44;;;;;;;3.10;1.60;;;;;;;;;;8262634;28;20041;-62
2022/10/02 20:07:46;;;;;;;2.85;1.35;;;;;;;;;;8262644;28;20021;-61
2022/10/02 20:11:51;;;;;;;2.03;1.45;;;;;;;;;;8262303;28;20483;-61
2022/10/02 20:20:30;;;;;;;3.97;1.70;;;;;;;;;;8264675;28;20094;-61
2022/10/02 20:24:50;;;;;;;6.85;1.75;;;;;;;;;;8262948;28;20029;-62
2022/10/02 20:28:54;;;;;;;3.67;1.80;;;;;;;;;;8270195;28;20029;-62
2022/10/02 20:33:00;;;;;;;2.17;1.95;;;;;;;;;;8270940;28;20076;-62
2022/10/02 20:37:35;;;;;;;3.13;1.80;;;;;;;;;;8271493;28;20450;-62
2022/10/02 20:41:41;;;;;;;2.88;1.65;;;;;;;;;;8242205;28;20048;-62
2022/10/02 20:45:47;;;;;;;4.40;1.92;;;;;;;;;;8263255;28;20095;-62
2022/10/02 20:49:48;;;;;;;4.32;2.30;;;;;;;;;;8265458;28;20022;-62
2022/10/02 20:53:48;;;;;;;4.57;1.92;;;;;;;;;;8261930;28;20866;-62
2022/10/02 20:58:07;;;;;;;3.60;2.10;;;;;;;;;;8265550;28;20028;-62
2022/10/02 21:02:07;;;;;;;9.55;2.35;;;;;;;;;;8263652;28;20038;-62
2022/10/02 21:06:11;;;;;;;4.43;1.88;;;;;;;;;;8271386;28;20025;-63
2022/10/02 21:10:11;;;;;;;5.32;2.28;;;;;;;;;;8271461;28;20582;-62
2022/10/02 21:14:30;;;;;;;4.55;2.35;;;;;;;;;;8271942;28;20040;-62
2022/10/02 21:18:53;;;;;;;4.80;2.10;;;;;;;;;;8271905;28;20030;-61
2022/10/02 21:23:12;;;;;;;6.70;2.10;;;;;;;;;;8275283;28;21066;-62
2022/10/02 21:27:18;;;;;;;5.50;2.38;;;;;;;;;;8278942;28;20037;-62
2022/10/02 21:31:21;;;;;;;8.27;2.70;;;;;;;;;;8273407;28;20675;-62
2022/10/02 21:35:33;;;;;;;5.20;2.33;;;;;;;;;;8277200;28;20037;-62
2022/10/02 21:40:04;;;;;;;6.32;2.65;;;;;;;;;;8277286;28;20026;-62
2022/10/02 21:44:04;;;;;;;7.22;2.65;;;;;;;;;;8275664;28;20065;-62
2022/10/02 21:48:23;;;;;;;6.80;3.00;;;;;;;;;;8276698;28;20038;-62
2022/10/02 21:52:24;;;;;;;9.43;3.10;;;;;;;;;;8276441;28;20292;-62
2022/10/02 21:56:43;;;;;;;7.90;2.88;;;;;;;;;;8278620;28;20028;-61
2022/10/02 22:00:55;;;;;;;12.05;3.10;;;;;;;;;;8273388;28;20034;-62
2022/10/02 22:05:08;;;;;;;10.77;3.22;;;;;;;;;;8276692;28;20546;-62
2022/10/02 22:09:28;;;;;;;5.72;2.80;;;;;;;;;;8277074;28;20021;-61
2022/10/02 22:13:31;;;;;;;8.32;3.92;;;;;;;;;;8276016;28;20025;-61
2022/10/02 22:18:09;;;;;;;8.35;3.13;;;;;;;;;;8274819;28;20061;-67
2022/10/02 22:22:19;;;;;;;8.63;3.05;;;;;;;;;;8205679;28;20378;-62
2022/10/02 22:26:25;;;;;;;9.95;3.10;;;;;;;;;;8240542;28;20045;-62
2022/10/02 22:30:27;;;;;;;6.93;3.10;;;;;;;;;;8274680;28;20043;-62
2022/10/02 22:34:45;;;;;;;8.13;3.65;;;;;;;;;;8275395;28;20033;-62
2022/10/02 22:38:49;;;;;;;6.18;3.20;;;;;;;;;;8276679;28;20543;-62
2022/10/02 22:42:50;;;;;;;;;;;;;;;;;;8276136;28;20045;-62
2022/10/02 22:47:10;;;;;;;7.30;3.17;;;;;;;;;;8275174;28;19916;-62
2022/10/02 22:51:15;;;;;;;11.93;3.60;;;;;;;;;;8276425;28;20030;-61
2022/10/02 22:55:21;;;;;;;12.60;3.60;;;;;;;;;;8275071;28;20363;-62
2022/10/02 22:59:28;;;;;;;6.80;3.35;;;;;;;;;;8275771;28;20091;-64
2022/10/02 23:03:31;;;;;;;8.27;4.75;;;;;;;;;;8275190;28;20467;-63
2022/10/02 23:07:34;;;;;;;11.65;5.05;;;;;;;;;;8276740;28;20442;-63
2022/10/02 23:11:38;;;;;;;12.37;5.57;;;;;;;;;;8274945;28;20037;-61
2022/10/02 23:15:44;;;;;;;21.38;8.43;;;;;;;;;;8274269;28;20033;-62
2022/10/02 23:19:44;;;;;;;9.65;4.50;;;;;;;;;;8275092;28;20029;-62
2022/10/02 23:23:54;;;;;;;5.78;3.30;;;;;;;;;;8277899;28;20025;-61
2022/10/02 23:27:58;;;;;;;5.93;2.80;;;;;;;;;;8274831;28;20559;-62
2022/10/02 23:32:05;;;;;;;6.82;2.65;;;;;;;;;;8307318;28;20419;-62
2022/10/02 23:36:14;;;;;;;6.53;3.65;;;;;;;;;;8273630;28;20026;-62
2022/10/02 23:40:14;;;;;;;7.47;3.03;;;;;;;;;;8273911;28;20112;-62
2022/10/02 23:44:16;;;;;;;9.45;3.50;;;;;;;;;;8273439;28;20030;-61
2022/10/02 23:48:16;;;;;;;12.18;3.70;;;;;;;;;;8275247;28;20038;-62
2022/10/02 23:52:25;;;;;;;7.32;3.20;;;;;;;;;;8274140;28;20030;-62
2022/10/02 23:56:43;;;;;;;7.97;3.75;;;;;;;;;;8276915;28;21046;-63
